Time;durP1;ratioP1;P1;durP2;ratioP2;P2;SDS_P1;SDS_P2;PMS_P1;PMS_P2;Temp;Humidity;BMP_temperature;BMP_pressure;BME280_temperature;BME280_humidity;BME280_pressure;Samples;Min_cycle;Max_cycle;Signal;HPM_P1;HPM_P2
2023/01/16 00:01:16;;;;;;;10.48;2.97;;;;;;;-146.73;100.00;56421.06;6156774;23;20009;-96
2023/01/16 00:03:45;;;;;;;9.77;2.90;;;;;;;-146.73;100.00;56421.06;6155786;23;20447;-96
2023/01/16 00:06:27;;;;;;;8.30;2.50;;;;;;;-146.73;100.00;56421.06;6153248;23;20461;-96
2023/01/16 00:09:02;;;;;;;6.97;2.35;;;;;;;-146.73;100.00;56421.06;6156833;23;20036;-96
2023/01/16 00:12:18;;;;;;;9.07;2.58;;;;;;;-146.73;100.00;56421.06;6156553;23;20092;-96
2023/01/16 00:15:23;;;;;;;7.28;2.50;;;;;;;-146.73;100.00;56421.06;6156395;23;20021;-96
2023/01/16 00:18:11;;;;;;;8.32;2.50;;;;;;;-146.73;100.00;56421.06;6150684;23;20510;-96
2023/01/16 00:20:45;;;;;;;8.45;2.72;;;;;;;-146.73;100.00;56421.06;6157861;23;20011;-96
2023/01/16 00:23:27;;;;;;;10.77;2.50;;;;;;;-146.73;100.00;56421.06;6157183;23;20002;-96
2023/01/16 00:26:31;;;;;;;6.55;2.40;;;;;;;-146.73;100.00;56421.06;6155549;23;20084;-95
2023/01/16 00:29:06;;;;;;;7.35;2.55;;;;;;;-146.73;100.00;56421.06;6137198;23;20002;-96
2023/01/16 00:34:47;;;;;;;6.63;2.13;;;;;;;-146.73;100.00;56421.06;6160738;23;20327;-96
2023/01/16 00:37:21;;;;;;;7.03;2.00;;;;;;;-146.73;100.00;56421.06;6158725;23;20002;-96
2023/01/16 00:40:01;;;;;;;8.27;1.98;;;;;;;-146.73;100.00;56421.06;6158336;23;20017;-96
2023/01/16 00:42:55;;;;;;;9.98;2.35;;;;;;;-146.73;100.00;56421.06;6158490;23;20017;-96
2023/01/16 00:45:42;;;;;;;5.95;1.90;;;;;;;-146.73;100.00;56421.06;6157432;23;20009;-96
2023/01/16 00:48:40;;;;;;;6.63;2.15;;;;;;;-146.73;100.00;56421.06;6158729;23;20048;-96
2023/01/16 00:51:33;;;;;;;8.07;2.78;;;;;;;-146.73;100.00;56421.06;6130207;23;20013;-96
2023/01/16 00:58:05;;;;;;;7.30;2.08;;;;;;;-146.73;100.00;56421.06;6157133;23;20020;-96
2023/01/16 01:00:26;;;;;;;7.78;2.38;;;;;;;-146.73;100.00;56421.06;6153419;23;20033;-96
2023/01/16 01:03:02;;;;;;;7.68;2.30;;;;;;;-146.73;100.00;56421.06;6156395;23;20009;-96
2023/01/16 01:05:43;;;;;;;8.40;2.72;;;;;;;-146.73;100.00;56421.06;6156742;23;20032;-96
2023/01/16 01:08:14;;;;;;;8.38;3.05;;;;;;;-146.73;100.00;56421.06;6153564;23;20093;-96
2023/01/16 01:10:51;;;;;;;8.40;3.53;;;;;;;-146.73;100.00;56421.06;6156520;23;20047;-96
2023/01/16 01:13:21;;;;;;;10.57;3.72;;;;;;;-146.73;100.00;56421.06;6156574;23;20009;-96
2023/01/16 01:16:03;;;;;;;7.78;3.10;;;;;;;-146.73;100.00;56421.06;6155845;23;20009;-96
2023/01/16 01:18:55;;;;;;;9.65;3.63;;;;;;;-146.73;100.00;56421.06;6063406;23;20014;-96
2023/01/16 01:21:23;;;;;;;8.18;2.85;;;;;;;-146.73;100.00;56421.06;6153092;23;20013;-96
2023/01/16 01:24:02;;;;;;;9.32;3.25;;;;;;;-146.73;100.00;56421.06;6156195;23;20014;-96
2023/01/16 01:27:28;;;;;;;7.75;2.70;;;;;;;-146.73;100.00;56421.06;6156071;23;20021;-96
2023/01/16 01:29:55;;;;;;;8.70;3.63;;;;;;;-146.73;100.00;56421.06;6140006;23;20462;-96
2023/01/16 01:32:33;;;;;;;9.27;3.97;;;;;;;-146.73;100.00;56421.06;6153734;23;20006;-95
2023/01/16 01:35:16;;;;;;;13.52;3.83;;;;;;;-146.73;100.00;56421.06;6154393;23;20020;-96
2023/01/16 01:37:52;;;;;;;13.60;4.57;;;;;;;-146.73;100.00;56421.06;6154734;23;20010;-96
2023/01/16 01:40:29;;;;;;;9.80;4.05;;;;;;;-146.73;100.00;56421.06;6154763;23;20116;-96
2023/01/16 01:43:11;;;;;;;9.93;4.32;;;;;;;-146.73;100.00;56421.06;6154751;23;20005;-96
2023/01/16 01:46:10;;;;;;;10.95;4.30;;;;;;;-146.73;100.00;56421.06;6153551;23;20009;-96
2023/01/16 01:48:57;;;;;;;;;;;;;;;;;;;;;
2023/01/16 01:51:46;;;;;;;10.65;4.65;;;;;;;-146.73;100.00;56421.06;6150729;23;20092;-96
2023/01/16 01:54:53;;;;;;;13.15;5.25;;;;;;;-146.73;100.00;56421.06;6151567;23;20014;-96
2023/01/16 01:57:54;;;;;;;17.38;6.40;;;;;;;-146.73;100.00;56421.06;6155166;23;20018;-96
2023/01/16 02:00:34;;;;;;;14.95;6.20;;;;;;;-146.73;100.00;56421.06;6152801;23;20519;-96
2023/01/16 02:03:37;;;;;;;15.38;6.35;;;;;;;-146.73;100.00;56421.06;6151185;23;20033;-96
2023/01/16 02:06:19;;;;;;;15.93;6.70;;;;;;;-146.73;100.00;56421.06;6041075;23;20014;-95
2023/01/16 02:08:48;;;;;;;16.42;6.78;;;;;;;-146.73;100.00;56421.06;6040971;23;20014;-96
2023/01/16 02:11:35;;;;;;;16.92;6.50;;;;;;;-146.73;100.00;56421.06;6065507;23;20007;-96
2023/01/16 02:14:27;;;;;;;15.07;7.00;;;;;;;-146.73;100.00;56421.06;6063847;23;20523;-96
2023/01/16 02:20:18;;;;;;;16.83;6.63;;;;;;;-146.73;100.00;56421.06;6065217;23;20029;-96
2023/01/16 02:23:08;;;;;;;15.45;6.70;;;;;;;-146.73;100.00;56421.06;6040625;23;20002;-96
2023/01/16 02:26:00;;;;;;;16.35;7.10;;;;;;;-146.73;100.00;56421.06;6039119;23;20041;-96
2023/01/16 02:29:15;;;;;;;17.05;6.65;;;;;;;-146.73;100.00;56421.06;6041658;23;20107;-96
2023/01/16 02:32:02;;;;;;;16.17;6.47;;;;;;;-146.73;100.00;56421.06;6040384;23;20015;-96
2023/01/16 02:35:06;;;;;;;14.90;6.15;;;;;;;-146.73;100.00;56421.06;6037147;23;20027;-95
2023/01/16 02:38:08;;;;;;;16.80;6.80;;;;;;;-146.73;100.00;56421.06;6041817;23;20093;-96
2023/01/16 02:40:54;;;;;;;14.82;5.95;;;;;;;-146.73;100.00;56421.06;6041825;23;20050;-96
2023/01/16 02:44:01;;;;;;;13.95;6.05;;;;;;;-146.73;100.00;56421.06;6140917;23;20044;-96
2023/01/16 02:50:16;;;;;;;18.23;6.53;;;;;;;-146.73;100.00;56421.06;6156502;23;20081;-96
2023/01/16 02:52:53;;;;;;;15.70;5.75;;;;;;;-146.73;100.00;56421.06;6155563;23;20014;-95
2023/01/16 02:55:49;;;;;;;15.00;6.45;;;;;;;-146.73;100.00;56421.06;6153958;23;20013;-96
2023/01/16 02:58:35;;;;;;;14.20;5.95;;;;;;;-146.73;100.00;56421.06;6154355;23;20028;-96
2023/01/16 03:04:34;;;;;;;15.75;5.82;;;;;;;-146.73;100.00;56421.06;6150578;23;20022;-96
2023/01/16 03:07:29;;;;;;;14.50;5.65;;;;;;;-146.73;100.00;56421.06;6158329;23;20018;-96
2023/01/16 03:13:13;;;;;;;15.00;6.15;;;;;;;-146.73;100.00;56421.06;6160971;23;20100;-96
2023/01/16 03:16:06;;;;;;;14.65;5.30;;;;;;;-146.73;100.00;56421.06;6161890;23;20045;-96
2023/01/16 03:18:49;;;;;;;12.38;4.85;;;;;;;-146.73;100.00;56421.06;6162430;23;19998;-93
2023/01/16 03:21:50;;;;;;;12.85;5.63;;;;;;;-146.73;100.00;56421.06;6153159;23;20088;-94
2023/01/16 03:24:53;;;;;;;13.82;5.80;;;;;;;-146.73;100.00;56421.06;6128091;23;20033;-95
2023/01/16 03:27:34;;;;;;;12.90;5.57;;;;;;;-146.73;100.00;56421.06;6012114;23;20030;-96
2023/01/16 03:30:28;;;;;;;16.02;6.22;;;;;;;-146.73;100.00;56421.06;6012898;23;20021;-96
2023/01/16 03:33:05;;;;;;;16.70;5.78;;;;;;;-146.73;100.00;56421.06;5995820;23;20011;-96
2023/01/16 03:35:37;;;;;;;13.85;6.03;;;;;;;-146.73;100.00;56421.06;6015101;23;20323;-95
2023/01/16 03:38:10;;;;;;;15.30;6.70;;;;;;;-146.73;100.00;56421.06;6019479;23;20098;-96
2023/01/16 03:40:43;;;;;;;16.25;6.70;;;;;;;-146.73;100.00;56421.06;6014088;23;20090;-96
2023/01/16 03:43:31;;;;;;;19.42;7.82;;;;;;;-146.73;100.00;56421.06;6018111;23;20442;-96
2023/01/16 03:46:31;;;;;;;19.75;7.43;;;;;;;-146.73;100.00;56421.06;6013345;23;20026;-96
2023/01/16 03:49:09;;;;;;;19.92;8.18;;;;;;;-146.73;100.00;56421.06;6010442;23;20100;-95
2023/01/16 03:51:42;;;;;;;18.42;7.38;;;;;;;-146.73;100.00;56421.06;6016743;23;20056;-96
2023/01/16 03:54:37;;;;;;;19.63;8.02;;;;;;;-146.73;100.00;56421.06;6017581;23;20480;-96
2023/01/16 03:57:15;;;;;;;22.15;7.97;;;;;;;-146.73;100.00;56421.06;6017843;23;20015;-96
2023/01/16 03:59:44;;;;;;;17.30;7.32;;;;;;;-146.73;100.00;56421.06;6018357;23;20022;-96
2023/01/16 04:02:43;;;;;;;24.13;7.68;;;;;;;-146.73;100.00;56421.06;6019124;23;20019;-95
2023/01/16 04:05:09;;;;;;;18.92;7.93;;;;;;;-146.73;100.00;56421.06;6125227;23;20016;-95
2023/01/16 04:07:45;;;;;;;21.30;8.10;;;;;;;-146.73;100.00;56421.06;6136018;23;20029;-95
2023/01/16 04:10:21;;;;;;;21.67;8.75;;;;;;;-146.73;100.00;56421.06;6135255;23;20021;-95
2023/01/16 04:13:01;;;;;;;25.55;8.32;;;;;;;-146.73;100.00;56421.06;6135402;23;20032;-95
2023/01/16 04:15:32;;;;;;;20.98;7.82;;;;;;;-146.73;100.00;56421.06;6133709;23;20009;-96
2023/01/16 04:17:58;;;;;;;27.08;9.15;;;;;;;-146.73;100.00;56421.06;6130788;23;20465;-96
2023/01/16 04:20:33;;;;;;;27.55;8.85;;;;;;;-146.73;100.00;56421.06;6131113;23;20026;-94
2023/01/16 04:22:59;;;;;;;21.90;8.70;;;;;;;-146.73;100.00;56421.06;6129536;23;20013;-95
2023/01/16 04:25:25;;;;;;;20.90;8.00;;;;;;;-146.73;100.00;56421.06;6129254;23;20025;-95
2023/01/16 04:27:51;;;;;;;19.60;8.23;;;;;;;-146.73;100.00;56421.06;6128492;23;20009;-96
2023/01/16 04:30:16;;;;;;;23.02;8.70;;;;;;;-146.73;100.00;56421.06;6129626;23;20021;-95
2023/01/16 04:32:43;;;;;;;23.48;8.40;;;;;;;-146.73;100.00;56421.06;6128831;23;20112;-95
2023/01/16 04:35:09;;;;;;;23.05;8.52;;;;;;;-146.73;100.00;56421.06;6130235;23;20371;-95
2023/01/16 04:40:08;;;;;;;21.10;8.00;;;;;;;-146.73;100.00;56421.06;6157561;23;20025;-95
2023/01/16 04:42:41;;;;;;;24.23;8.30;;;;;;;-146.73;100.00;56421.06;6131955;23;20020;-95
2023/01/16 04:45:07;;;;;;;21.52;7.93;;;;;;;-146.73;100.00;56421.06;6132441;23;20013;-95
2023/01/16 04:47:33;;;;;;;26.00;8.32;;;;;;;-146.73;100.00;56421.06;6130853;23;20009;-95
2023/01/16 04:49:58;;;;;;;22.42;8.65;;;;;;;-146.73;100.00;56421.06;6159014;23;20327;-96
2023/01/16 04:52:27;;;;;;;21.17;7.43;;;;;;;-146.73;100.00;56421.06;6130823;23;20048;-94
2023/01/16 04:54:53;;;;;;;24.50;8.13;;;;;;;-146.73;100.00;56421.06;6130454;23;20032;-96
2023/01/16 04:57:18;;;;;;;21.75;8.00;;;;;;;-146.73;100.00;56421.06;6129839;23;20430;-96
2023/01/16 04:59:44;;;;;;;20.83;7.93;;;;;;;-146.73;100.00;56421.06;6132531;23;20327;-95
2023/01/16 05:02:09;;;;;;;18.85;7.35;;;;;;;-146.73;100.00;56421.06;6133096;23;20005;-96
2023/01/16 05:04:34;;;;;;;20.42;7.43;;;;;;;-146.73;100.00;56421.06;6133192;23;20017;-96
2023/01/16 05:07:00;;;;;;;21.60;7.18;;;;;;;-146.73;100.00;56421.06;6132745;23;20017;-96
2023/01/16 05:09:28;;;;;;;17.95;6.60;;;;;;;-146.73;100.00;56421.06;6135775;23;20036;-96
2023/01/16 05:11:54;;;;;;;19.58;6.85;;;;;;;-146.73;100.00;56421.06;6133967;23;20002;-96
2023/01/16 05:14:20;;;;;;;17.75;7.10;;;;;;;-146.73;100.00;56421.06;6137584;23;20045;-96
2023/01/16 05:16:45;;;;;;;18.20;6.60;;;;;;;-146.73;100.00;56421.06;6138475;23;20115;-96
2023/01/16 05:19:11;;;;;;;17.88;5.82;;;;;;;-146.73;100.00;56421.06;6138607;23;20032;-96
2023/01/16 05:21:37;;;;;;;23.55;6.07;;;;;;;-146.73;100.00;56421.06;6138662;23;20457;-96
2023/01/16 05:24:05;;;;;;;17.55;5.65;;;;;;;-146.73;100.00;56421.06;6139133;23;20445;-95
2023/01/16 05:26:30;;;;;;;16.60;5.97;;;;;;;-146.73;100.00;56421.06;6158697;23;20005;-95
2023/01/16 05:28:58;;;;;;;22.23;6.25;;;;;;;-146.73;100.00;56421.06;6133477;23;20020;-96
2023/01/16 05:31:27;;;;;;;11.85;5.18;;;;;;;-146.73;100.00;56421.06;6133609;23;20009;-95
2023/01/16 05:33:52;;;;;;;13.05;5.25;;;;;;;-146.73;100.00;56421.06;6133423;23;20005;-96
2023/01/16 05:36:18;;;;;;;14.73;5.68;;;;;;;-146.73;100.00;56421.06;6133249;23;20100;-95
2023/01/16 05:38:44;;;;;;;16.20;5.35;;;;;;;-146.73;100.00;56421.06;6144717;23;20036;-95
2023/01/16 05:41:09;;;;;;;13.32;5.07;;;;;;;-146.73;100.00;56421.06;6161984;23;20131;-95
2023/01/16 05:43:35;;;;;;;16.55;5.38;;;;;;;-146.73;100.00;56421.06;6160490;23;20001;-95
2023/01/16 05:46:00;;;;;;;17.77;5.75;;;;;;;-146.73;100.00;56421.06;6160428;23;20011;-94
2023/01/16 05:48:28;;;;;;;18.02;5.68;;;;;;;-146.73;100.00;56421.06;6163127;23;20163;-96
2023/01/16 05:50:53;;;;;;;17.08;6.13;;;;;;;-146.73;100.00;56421.06;6163408;23;20009;-96
2023/01/16 05:53:19;;;;;;;16.75;6.15;;;;;;;-146.73;100.00;56421.06;6163325;23;20043;-96
2023/01/16 05:55:48;;;;;;;18.38;6.15;;;;;;;-146.73;100.00;56421.06;6163962;23;20334;-96
2023/01/16 05:58:16;;;;;;;18.38;5.65;;;;;;;-146.73;100.00;56421.06;6163233;23;20009;-95
2023/01/16 06:00:43;;;;;;;20.17;6.05;;;;;;;-146.73;100.00;56421.06;6190120;23;20084;-96
2023/01/16 06:03:09;;;;;;;18.50;5.97;;;;;;;-146.73;100.00;56421.06;6163634;23;20001;-96
2023/01/16 06:05:35;;;;;;;14.43;5.40;;;;;;;-146.73;100.00;56421.06;6165223;23;20009;-96
2023/01/16 06:08:01;;;;;;;22.58;6.07;;;;;;;-146.73;100.00;56421.06;6162849;23;19996;-96
2023/01/16 06:10:27;;;;;;;16.33;5.82;;;;;;;-146.73;100.00;56421.06;6163347;23;20092;-95
2023/01/16 06:12:53;;;;;;;18.63;5.32;;;;;;;-146.73;100.00;56421.06;6188271;23;20021;-96
2023/01/16 06:15:19;;;;;;;93.00;10.27;;;;;;;-146.73;100.00;56421.06;6189197;23;20016;-96
2023/01/16 06:17:45;;;;;;;18.88;5.97;;;;;;;-146.73;100.00;56421.06;6161901;23;20440;-96
2023/01/16 06:20:11;;;;;;;27.60;7.55;;;;;;;-146.73;100.00;56421.06;6161560;23;20005;-95
2023/01/16 06:22:38;;;;;;;17.85;6.32;;;;;;;-146.73;100.00;56421.06;6162861;23;20089;-95
2023/01/16 06:25:04;;;;;;;253.63;23.75;;;;;;;-146.73;100.00;56421.06;6158021;23;20005;-96
2023/01/16 06:27:32;;;;;;;18.85;6.55;;;;;;;-146.73;100.00;56421.06;6159364;23;20013;-96
2023/01/16 06:29:57;;;;;;;73.45;9.60;;;;;;;-146.73;100.00;56421.06;6158089;23;20448;-96
2023/01/16 06:32:23;;;;;;;39.42;7.20;;;;;;;-146.73;100.00;56421.06;6159104;23;20033;-94
2023/01/16 06:34:48;;;;;;;13.32;4.70;;;;;;;-146.73;100.00;56421.06;6159162;23;20067;-96
2023/01/16 06:37:14;;;;;;;15.77;5.53;;;;;;;-146.73;100.00;56421.06;6158485;23;19997;-95
2023/01/16 06:39:39;;;;;;;111.78;13.18;;;;;;;-146.73;100.00;56421.06;6157985;23;20017;-95
2023/01/16 06:42:05;;;;;;;18.83;6.00;;;;;;;-146.73;100.00;56421.06;6157699;23;20013;-95
2023/01/16 06:47:04;;;;;;;106.40;10.75;;;;;;;-146.73;100.00;56421.06;6153952;23;20083;-95
2023/01/16 06:49:29;;;;;;;16.63;4.10;;;;;;;-146.73;100.00;56421.06;6153065;23;20009;-95
2023/01/16 06:51:55;;;;;;;79.07;8.93;;;;;;;-146.73;100.00;56421.06;6151616;23;20087;-95
2023/01/16 06:54:21;;;;;;;33.15;3.78;;;;;;;-146.73;100.00;56421.06;6150185;23;20008;-96
2023/01/16 06:56:46;;;;;;;16.58;2.65;;;;;;;-146.73;100.00;56421.06;6153300;23;20419;-95
2023/01/16 06:59:12;;;;;;;11.07;1.75;;;;;;;-146.73;100.00;56421.06;6154918;23;20043;-96
2023/01/16 07:01:38;;;;;;;14.35;2.15;;;;;;;-146.73;100.00;56421.06;6155918;23;20011;-95
2023/01/16 07:04:06;;;;;;;9.02;1.88;;;;;;;-146.73;100.00;56421.06;6131230;23;20025;-96
2023/01/16 07:09:12;;;;;;;64.32;5.93;;;;;;;-146.73;100.00;56421.06;6127507;23;20053;-96
2023/01/16 07:11:38;;;;;;;100.25;8.88;;;;;;;-146.73;100.00;56421.06;6105561;23;20017;-94
2023/01/16 07:22:43;;;;;;;26.33;3.22;;;;;;;-146.73;100.00;56421.06;6155813;23;20035;-95
2023/01/16 07:25:23;;;;;;;10.98;2.10;;;;;;;-146.73;100.00;56421.06;6127481;23;20021;-95
2023/01/16 07:27:51;;;;;;;23.23;3.28;;;;;;;-146.73;100.00;56421.06;6126384;23;20023;-95
2023/01/16 07:30:19;;;;;;;21.40;3.42;;;;;;;-146.73;100.00;56421.06;6126942;23;20053;-95
2023/01/16 07:32:51;;;;;;;13.45;2.92;;;;;;;-146.73;100.00;56421.06;6126623;23;20013;-95
2023/01/16 07:35:17;;;;;;;24.95;3.55;;;;;;;-146.73;100.00;56421.06;6127188;23;20435;-94
2023/01/16 07:37:46;;;;;;;12.20;3.40;;;;;;;-146.73;100.00;56421.06;6126618;23;20009;-95
2023/01/16 07:40:12;;;;;;;88.88;8.35;;;;;;;-146.73;100.00;56421.06;6127275;23;20012;-96
2023/01/16 07:42:38;;;;;;;11.82;3.70;;;;;;;-146.73;100.00;56421.06;6131687;23;20009;-96
2023/01/16 07:45:06;;;;;;;149.77;14.02;;;;;;;-146.73;100.00;56421.06;6132147;23;20478;-94
2023/01/16 07:47:34;;;;;;;15.77;3.92;;;;;;;-146.73;100.00;56421.06;6130414;23;20014;-95
2023/01/16 07:50:00;;;;;;;15.38;4.20;;;;;;;-146.73;100.00;56421.06;6154232;23;20084;-95
2023/01/16 07:52:26;;;;;;;14.77;3.58;;;;;;;-146.73;100.00;56421.06;6155884;23;20085;-95
2023/01/16 07:54:52;;;;;;;15.43;3.63;;;;;;;-146.73;100.00;56421.06;6128092;23;20447;-95
2023/01/16 07:57:17;;;;;;;12.80;3.70;;;;;;;-146.73;100.00;56421.06;6130011;23;20025;-96
2023/01/16 07:59:44;;;;;;;16.83;5.03;;;;;;;-146.73;100.00;56421.06;6129678;23;20080;-94
2023/01/16 08:02:11;;;;;;;12.05;3.47;;;;;;;-146.73;100.00;56421.06;6132074;23;20330;-95
2023/01/16 08:04:37;;;;;;;18.42;4.22;;;;;;;-146.73;100.00;56421.06;6126352;23;20715;-96
2023/01/16 08:07:03;;;;;;;12.02;3.95;;;;;;;-146.73;100.00;56421.06;6128818;23;20510;-96
2023/01/16 08:09:32;;;;;;;13.20;3.67;;;;;;;-146.73;100.00;56421.06;6130572;23;20010;-96
2023/01/16 08:11:58;;;;;;;92.93;9.07;;;;;;;-146.73;100.00;56421.06;6130633;23;20001;-96
2023/01/16 08:14:26;;;;;;;24.38;4.22;;;;;;;-146.73;100.00;56421.06;6128693;23;20013;-94
2023/01/16 08:17:03;;;;;;;11.98;3.47;;;;;;;-146.73;100.00;56421.06;6130855;23;20021;-95
2023/01/16 08:19:31;;;;;;;14.65;3.72;;;;;;;-146.73;100.00;56421.06;6133563;23;20002;-95
2023/01/16 08:21:59;;;;;;;98.10;8.25;;;;;;;-146.73;100.00;56421.06;6139331;23;20416;-96
2023/01/16 08:24:25;;;;;;;15.18;3.75;;;;;;;-146.73;100.00;56421.06;6130545;23;20029;-94
2023/01/16 08:26:55;;;;;;;9.18;3.17;;;;;;;-146.73;100.00;56421.06;6144288;23;20009;-96
2023/01/16 08:29:23;;;;;;;46.22;5.35;;;;;;;-146.73;100.00;56421.06;6139341;23;20005;-96
2023/01/16 08:32:06;;;;;;;13.25;3.47;;;;;;;-146.73;100.00;56421.06;6144020;23;20022;-96
2023/01/16 08:34:50;;;;;;;18.40;3.53;;;;;;;-146.73;100.00;56421.06;6144537;23;20018;-96
2023/01/16 08:37:16;;;;;;;;;;;;;;;-146.73;100.00;56421.06;6119809;23;20812;-96
2023/01/16 08:39:43;;;;;;;26.20;4.03;;;;;;;-146.73;100.00;56421.06;6132109;23;19920;-96
2023/01/16 08:53:15;;;;;;;17.75;3.25;;;;;;;-146.73;100.00;56421.06;6159148;23;20088;-95
2023/01/16 08:55:40;;;;;;;9.32;2.90;;;;;;;-146.73;100.00;56421.06;6130030;23;20013;-96
2023/01/16 08:58:05;;;;;;;8.07;2.28;;;;;;;-146.73;100.00;56421.06;6130767;23;20006;-96
2023/01/16 09:00:33;;;;;;;48.70;4.68;;;;;;;-146.73;100.00;56421.06;6153642;23;20076;-96
2023/01/16 09:03:01;;;;;;;8.40;2.10;;;;;;;-146.73;100.00;56421.06;6128485;23;20014;-96
2023/01/16 09:05:27;;;;;;;15.20;2.53;;;;;;;-146.73;100.00;56421.06;6129255;23;20021;-96
2023/01/16 09:07:53;;;;;;;30.02;3.35;;;;;;;-146.73;100.00;56421.06;6128959;23;20013;-96
2023/01/16 09:10:25;;;;;;;34.70;4.30;;;;;;;-146.73;100.00;56421.06;6129004;23;20009;-96
2023/01/16 09:15:44;;;;;;;27.63;3.30;;;;;;;-146.73;100.00;56421.06;6157030;23;20108;-96
2023/01/16 09:18:11;;;;;;;7.68;2.10;;;;;;;-146.73;100.00;56421.06;6132975;23;20025;-95
2023/01/16 09:20:36;;;;;;;22.08;2.58;;;;;;;-146.73;100.00;56421.06;6132484;23;20013;-96
2023/01/16 09:23:03;;;;;;;6.65;2.20;;;;;;;-146.73;100.00;56421.06;6160818;23;20005;-96
2023/01/16 09:25:32;;;;;;;9.00;2.40;;;;;;;-146.73;100.00;56421.06;6136342;23;20005;-96
2023/01/16 09:28:00;;;;;;;7.93;3.10;;;;;;;-146.73;100.00;56421.06;6135907;23;20005;-96
2023/01/16 09:30:32;;;;;;;9.10;2.05;;;;;;;-146.73;100.00;56421.06;6140626;23;20013;-97
2023/01/16 09:32:57;;;;;;;9.93;2.45;;;;;;;-146.73;100.00;56421.06;6137041;23;20009;-96
2023/01/16 09:35:23;;;;;;;7.88;1.90;;;;;;;-146.73;100.00;56421.06;6156468;23;20017;-96
2023/01/16 09:37:48;;;;;;;7.55;1.95;;;;;;;-146.73;100.00;56421.06;6132583;23;20029;-96
2023/01/16 09:40:21;;;;;;;7.53;1.85;;;;;;;-146.73;100.00;56421.06;6160488;23;20045;-96
2023/01/16 09:43:38;;;;;;;9.45;2.00;;;;;;;-146.73;100.00;56421.06;6137701;23;20005;-96
2023/01/16 09:46:27;;;;;;;9.32;1.73;;;;;;;-146.73;100.00;56421.06;6068613;23;20045;-96
2023/01/16 09:49:13;;;;;;;8.65;1.85;;;;;;;-146.73;100.00;56421.06;6039515;23;20086;-96
2023/01/16 09:58:34;;;;;;;7.90;1.90;;;;;;;-146.73;100.00;56421.06;6038831;23;20043;-96
2023/01/16 10:00:34;;;;;;;;;;;;;;;;;;;;;
2023/01/16 10:03:00;;;;;;;8.23;2.20;;;;;;;-146.73;100.00;56421.06;6062179;23;20046;-96
2023/01/16 10:05:36;;;;;;;9.38;2.20;;;;;;;-146.73;100.00;56421.06;6039995;23;20010;-96
2023/01/16 10:08:32;;;;;;;8.10;2.08;;;;;;;-146.73;100.00;56421.06;6039086;23;20061;-96
2023/01/16 10:11:16;;;;;;;7.43;2.22;;;;;;;-146.73;100.00;56421.06;6040981;23;20011;-96
2023/01/16 10:14:23;;;;;;;9.98;2.10;;;;;;;-146.73;100.00;56421.06;6041574;23;20468;-96
2023/01/16 10:17:03;;;;;;;8.60;1.83;;;;;;;-146.73;100.00;56421.06;6063796;23;20018;-96
2023/01/16 10:19:29;;;;;;;12.05;2.13;;;;;;;-146.73;100.00;56421.06;6039590;23;20003;-96
2023/01/16 10:22:22;;;;;;;7.68;2.40;;;;;;;-146.73;100.00;56421.06;6059050;23;20060;-96
2023/01/16 10:25:15;;;;;;;10.02;2.55;;;;;;;-146.73;100.00;56421.06;6130267;23;20051;-96
2023/01/16 10:28:04;;;;;;;9.73;2.72;;;;;;;-146.73;100.00;56421.06;6129630;23;20041;-96
2023/01/16 10:30:37;;;;;;;9.23;2.45;;;;;;;-146.73;100.00;56421.06;6130067;23;20013;-96
2023/01/16 10:33:26;;;;;;;8.93;2.50;;;;;;;-146.73;100.00;56421.06;6129730;23;20093;-96
2023/01/16 10:35:54;;;;;;;8.80;2.30;;;;;;;-146.73;100.00;56421.06;6128535;23;20033;-96
2023/01/16 10:38:50;;;;;;;8.93;2.53;;;;;;;-146.73;100.00;56421.06;6106646;23;20037;-96
2023/01/16 10:49:53;;;;;;;12.30;2.42;;;;;;;-146.73;100.00;56421.06;6098663;23;20018;-96
2023/01/16 10:52:19;;;;;;;22.55;3.85;;;;;;;-146.73;100.00;56421.06;6095251;23;20002;-96
2023/01/16 10:54:44;;;;;;;11.93;2.63;;;;;;;-146.73;100.00;56421.06;6098029;23;20010;-96
2023/01/16 10:57:13;;;;;;;9.13;2.80;;;;;;;-146.73;100.00;56421.06;6106620;23;20007;-94
2023/01/16 10:59:44;;;;;;;5.97;1.85;;;;;;;-146.73;100.00;56421.06;6156180;23;20021;-95
2023/01/16 11:02:30;;;;;;;6.20;1.52;;;;;;;-146.73;100.00;56421.06;6151905;23;20020;-94
2023/01/16 11:04:57;;;;;;;7.90;1.58;;;;;;;-146.73;100.00;56421.06;6181444;23;20454;-96
2023/01/16 11:07:26;;;;;;;31.05;2.90;;;;;;;-146.73;100.00;56421.06;6152027;23;20009;-95
2023/01/16 11:09:51;;;;;;;8.30;1.73;;;;;;;-146.73;100.00;56421.06;6152452;23;20037;-95
2023/01/16 11:20:49;;;;;;;5.70;1.40;;;;;;;-146.73;100.00;56421.06;6180084;23;20062;-95
2023/01/16 11:23:27;;;;;;;27.98;2.55;;;;;;;-146.73;100.00;56421.06;6154022;23;20012;-94
2023/01/16 11:25:58;;;;;;;5.15;1.30;;;;;;;-146.73;100.00;56421.06;6152423;23;20005;-93
2023/01/16 11:28:27;;;;;;;7.95;1.40;;;;;;;-146.73;100.00;56421.06;6152016;23;20020;-94
2023/01/16 11:31:07;;;;;;;4.93;1.02;;;;;;;-146.73;100.00;56421.06;6154340;23;20005;-95
2023/01/16 11:33:41;;;;;;;9.32;1.63;;;;;;;-146.73;100.00;56421.06;6158159;23;20435;-94
2023/01/16 11:36:19;;;;;;;7.13;1.30;;;;;;;-146.73;100.00;56421.06;6155021;23;20067;-93
2023/01/16 11:39:01;;;;;;;4.72;1.10;;;;;;;-146.73;100.00;56421.06;6183627;23;20442;-96
2023/01/16 11:41:33;;;;;;;2.95;0.98;;;;;;;-146.73;100.00;56421.06;6159958;23;20090;-95
2023/01/16 11:47:16;;;;;;;4.55;1.00;;;;;;;-146.73;100.00;56421.06;6182310;23;20023;-96
2023/01/16 11:49:50;;;;;;;3.78;0.73;;;;;;;-146.73;100.00;56421.06;6158542;23;20529;-96
2023/01/16 11:52:29;;;;;;;4.70;0.70;;;;;;;-146.73;100.00;56421.06;6157488;23;20020;-95
2023/01/16 11:55:00;;;;;;;7.03;1.10;;;;;;;-146.73;100.00;56421.06;6156521;23;20005;-96
2023/01/16 11:57:34;;;;;;;4.20;0.77;;;;;;;-146.73;100.00;56421.06;6152537;23;20087;-95
2023/01/16 12:00:38;;;;;;;2.97;0.65;;;;;;;-146.73;100.00;56421.06;6150766;23;20057;-95
2023/01/16 12:03:56;;;;;;;3.58;0.77;;;;;;;-146.73;100.00;56421.06;6151548;23;20525;-96
2023/01/16 12:06:49;;;;;;;2.45;0.73;;;;;;;-146.73;100.00;56421.06;6115569;23;20013;-96
2023/01/16 12:09:42;;;;;;;3.42;0.75;;;;;;;-146.73;100.00;56421.06;6159993;23;20033;-96
2023/01/16 12:15:49;;;;;;;2.20;0.60;;;;;;;-146.73;100.00;56421.06;6153502;23;20338;-96
2023/01/16 12:18:38;;;;;;;3.03;0.70;;;;;;;-146.73;100.00;56421.06;6122255;23;20084;-96
2023/01/16 12:21:19;;;;;;;2.10;0.63;;;;;;;-146.73;100.00;56421.06;6150011;23;20020;-96
2023/01/16 12:24:02;;;;;;;3.72;0.63;;;;;;;-146.73;100.00;56421.06;6148865;23;20017;-96
2023/01/16 12:26:31;;;;;;;2.38;0.60;;;;;;;-146.73;100.00;56421.06;6147783;23;20028;-95
2023/01/16 12:29:23;;;;;;;3.28;0.68;;;;;;;-146.73;100.00;56421.06;6147251;23;20020;-96
2023/01/16 12:31:55;;;;;;;3.38;0.70;;;;;;;-146.73;100.00;56421.06;6147011;23;20009;-96
2023/01/16 12:34:42;;;;;;;3.57;0.80;;;;;;;-146.73;100.00;56421.06;6159128;23;20013;-96
2023/01/16 12:37:28;;;;;;;2.42;0.63;;;;;;;-146.73;100.00;56421.06;6170652;23;20231;-96
2023/01/16 12:40:21;;;;;;;3.90;0.57;;;;;;;-146.73;100.00;56421.06;6168915;23;20017;-96
2023/01/16 12:43:26;;;;;;;1.60;0.40;;;;;;;-146.73;100.00;56421.06;6167127;23;20017;-96
2023/01/16 12:46:26;;;;;;;1.77;0.40;;;;;;;-146.73;100.00;56421.06;6174718;23;20005;-96
2023/01/16 12:49:38;;;;;;;1.27;0.30;;;;;;;-146.73;100.00;56421.06;6171869;23;20069;-96
2023/01/16 12:52:14;;;;;;;1.85;0.40;;;;;;;-146.73;100.00;56421.06;6159366;23;20001;-96
2023/01/16 12:58:18;;;;;;;1.98;0.47;;;;;;;-146.73;100.00;56421.06;6176465;23;20067;-94
2023/01/16 13:01:10;;;;;;;2.72;0.60;;;;;;;-146.73;100.00;56421.06;6150742;23;20492;-96
2023/01/16 13:04:06;;;;;;;1.27;0.22;;;;;;;-146.73;100.00;56421.06;6140078;23;20055;-95
2023/01/16 13:06:40;;;;;;;1.02;0.20;;;;;;;-146.73;100.00;56421.06;6151996;23;20454;-95
2023/01/16 13:09:19;;;;;;;1.38;0.25;;;;;;;-146.73;100.00;56421.06;6151210;23;20005;-94
2023/01/16 13:14:48;;;;;;;1.60;0.40;;;;;;;-146.73;100.00;56421.06;6179131;23;20358;-94